createdAt,value
2022-11-22T00:00:22.754Z,44.15
2022-11-22T00:02:53.595Z,41.17
2022-11-22T00:05:24.546Z,38.65
2022-11-22T00:07:55.664Z,35.95
2022-11-22T00:10:26.276Z,29.83
2022-11-22T00:12:57.564Z,38.97
2022-11-22T00:15:28.457Z,32.38
2022-11-22T00:17:59.222Z,37.28
2022-11-22T00:20:30.911Z,38.53
2022-11-22T00:23:01.890Z,35.22
2022-11-22T00:25:32.758Z,34.88
2022-11-22T00:28:03.165Z,34.67
2022-11-22T00:30:33.968Z,31.63
2022-11-22T00:33:04.848Z,36.45
2022-11-22T00:35:35.528Z,30.23
2022-11-22T00:38:05.899Z,29.73
2022-11-22T00:40:36.579Z,34.17
2022-11-22T00:43:07.919Z,30.50
2022-11-22T00:45:38.374Z,31.20
2022-11-22T00:48:09.332Z,32.65
2022-11-22T00:50:40.144Z,28.80
2022-11-22T00:53:10.329Z,32.20
2022-11-22T00:55:40.742Z,30.42
2022-11-22T00:58:11.681Z,29.08
2022-11-22T01:00:41.778Z,27.20
2022-11-22T01:03:16.156Z,29.98
2022-11-22T01:05:46.494Z,32.72
2022-11-22T01:08:16.960Z,30.67
2022-11-22T01:10:47.498Z,26.67
2022-11-22T01:13:18.021Z,31.75
2022-11-22T01:15:49.195Z,24.42
2022-11-22T01:18:20.039Z,26.25
2022-11-22T01:20:50.564Z,28.38
2022-11-22T01:23:21.194Z,27.85
2022-11-22T01:25:51.883Z,27.73
2022-11-22T01:28:23.145Z,26.98
2022-11-22T01:30:54.550Z,22.73
2022-11-22T01:33:24.718Z,26.52
2022-11-22T01:35:55.813Z,24.50
2022-11-22T01:38:26.966Z,24.23
2022-11-22T01:40:57.798Z,25.23
2022-11-22T01:43:30.148Z,33.40
2022-11-22T01:46:04.342Z,23.40
2022-11-22T01:48:54.065Z,35.70
2022-11-22T01:51:34.645Z,28.80
2022-11-22T01:54:11.016Z,25.88
2022-11-22T01:56:44.409Z,26.13
2022-11-22T01:59:18.611Z,23.38
2022-11-22T02:01:49.146Z,22.65
2022-11-22T02:04:21.436Z,26.17
2022-11-22T02:07:14.890Z,22.00
2022-11-22T02:09:46.336Z,22.60
2022-11-22T02:12:19.356Z,25.23
2022-11-22T02:14:50.783Z,26.02
2022-11-22T02:17:21.299Z,21.05
2022-11-22T02:19:54.278Z,23.20
2022-11-22T02:22:50.196Z,17.10
2022-11-22T02:25:50.064Z,17.65
2022-11-22T02:28:21.607Z,20.80
2022-11-22T02:30:52.350Z,22.42
2022-11-22T02:33:23.175Z,20.25
2022-11-22T02:35:54.634Z,25.10
2022-11-22T02:38:28.871Z,24.05
2022-11-22T02:41:13.991Z,21.38
2022-11-22T02:43:49.374Z,19.38
2022-11-22T02:46:25.130Z,19.83
2022-11-22T02:48:55.256Z,18.33
2022-11-22T02:51:26.471Z,19.83
2022-11-22T02:53:58.347Z,33.80
2022-11-22T02:56:29.147Z,21.35
2022-11-22T02:58:59.883Z,19.23
2022-11-22T03:01:30.970Z,19.77
2022-11-22T03:04:01.440Z,21.55
2022-11-22T03:06:31.862Z,20.88
2022-11-22T03:09:02.059Z,19.05
2022-11-22T03:11:32.594Z,19.05
2022-11-22T03:14:03.722Z,22.80
2022-11-22T03:16:34.888Z,20.20
2022-11-22T03:19:05.928Z,18.38
2022-11-22T03:21:37.038Z,21.45
2022-11-22T03:24:08.882Z,21.23
2022-11-22T03:26:40.014Z,20.00
2022-11-22T03:29:10.471Z,21.17
2022-11-22T03:31:41.576Z,22.40
2022-11-22T03:34:14.966Z,23.55
2022-11-22T03:36:45.332Z,21.80
2022-11-22T03:39:15.877Z,22.95
2022-11-22T03:41:46.671Z,20.02
2022-11-22T03:44:17.117Z,21.52
2022-11-22T03:46:47.948Z,18.65
2022-11-22T03:49:18.422Z,19.50
2022-11-22T03:51:48.758Z,22.05
2022-11-22T03:54:19.499Z,18.00
2022-11-22T03:56:50.272Z,18.13
2022-11-22T03:59:21.183Z,18.77
2022-11-22T04:01:52.013Z,17.77
2022-11-22T04:04:22.474Z,17.60
2022-11-22T04:06:53.250Z,18.02
2022-11-22T04:09:23.703Z,18.40
2022-11-22T04:11:54.424Z,16.90
2022-11-22T04:14:44.712Z,19.45
2022-11-22T04:17:15.823Z,18.27
2022-11-22T04:20:05.252Z,16.95
2022-11-22T04:22:35.661Z,17.65
2022-11-22T04:25:26.006Z,19.75
2022-11-22T04:27:57.757Z,18.70
2022-11-22T04:30:48.484Z,18.83
2022-11-22T04:33:19.820Z,23.48
2022-11-22T04:35:50.158Z,18.80
2022-11-22T04:38:21.550Z,17.23
2022-11-22T04:40:52.808Z,20.30
2022-11-22T04:43:49.408Z,19.80
2022-11-22T04:46:19.754Z,23.23
2022-11-22T04:48:50.494Z,18.50
2022-11-22T04:51:40.448Z,18.75
2022-11-22T04:54:10.608Z,19.08
2022-11-22T04:56:41.309Z,17.10
2022-11-22T04:59:11.638Z,16.92
2022-11-22T05:01:42.000Z,16.33
2022-11-22T05:04:12.739Z,16.48
2022-11-22T05:06:43.350Z,18.45
2022-11-22T05:09:14.166Z,18.52
2022-11-22T05:11:44.743Z,16.65
2022-11-22T05:14:15.638Z,16.83
2022-11-22T05:16:46.822Z,15.07
2022-11-22T05:19:16.898Z,15.30
2022-11-22T05:21:47.449Z,17.63
2022-11-22T05:24:17.595Z,16.10
2022-11-22T05:26:47.927Z,15.15
2022-11-22T05:29:19.032Z,17.45
2022-11-22T05:31:51.488Z,16.48
2022-11-22T05:34:22.060Z,17.17
2022-11-22T05:36:52.562Z,15.73
2022-11-22T05:39:22.741Z,16.90
2022-11-22T05:41:59.166Z,15.95
2022-11-22T05:44:29.019Z,15.85
2022-11-22T05:46:59.458Z,15.02
2022-11-22T05:49:30.171Z,14.27
2022-11-22T05:52:00.545Z,13.57
2022-11-22T05:54:31.228Z,17.35
2022-11-22T05:57:02.281Z,14.95
2022-11-22T05:59:32.829Z,14.60
2022-11-22T06:02:03.735Z,16.40
2022-11-22T06:04:34.049Z,16.52
2022-11-22T06:07:09.623Z,17.27
2022-11-22T06:09:40.084Z,17.45
2022-11-22T06:12:10.353Z,15.75
2022-11-22T06:14:43.478Z,17.52
2022-11-22T06:17:15.037Z,17.60
2022-11-22T06:19:45.576Z,14.98
2022-11-22T06:22:15.689Z,17.50
2022-11-22T06:24:46.125Z,19.20
2022-11-22T06:27:16.410Z,13.95
2022-11-22T06:29:46.528Z,14.27
2022-11-22T06:32:17.035Z,15.82
2022-11-22T06:34:47.365Z,16.70
2022-11-22T06:37:18.607Z,13.25
2022-11-22T06:39:48.980Z,13.68
2022-11-22T06:42:19.779Z,13.45
2022-11-22T06:44:49.935Z,17.20
2022-11-22T06:47:20.638Z,13.77
2022-11-22T06:49:51.344Z,12.95
2022-11-22T06:52:21.875Z,13.65
2022-11-22T06:54:52.590Z,14.68
2022-11-22T06:57:23.729Z,13.82
2022-11-22T06:59:53.779Z,13.18
2022-11-22T07:02:23.925Z,19.92
2022-11-22T07:05:23.252Z,13.10
2022-11-22T07:07:44.492Z,14.77
2022-11-22T07:10:15.955Z,14.25
2022-11-22T07:12:46.625Z,19.48
2022-11-22T07:15:17.501Z,13.40
2022-11-22T07:17:47.959Z,15.02
2022-11-22T07:20:18.244Z,15.73
2022-11-22T07:22:50.631Z,14.38
2022-11-22T07:25:21.693Z,15.07
2022-11-22T07:27:54.685Z,13.63
2022-11-22T07:30:25.178Z,13.43
2022-11-22T07:32:56.458Z,14.10
2022-11-22T07:35:27.278Z,15.82
2022-11-22T07:37:58.129Z,13.48
2022-11-22T07:40:28.870Z,12.98
2022-11-22T07:42:59.409Z,14.85
2022-11-22T07:45:29.638Z,13.13
2022-11-22T07:48:02.740Z,15.80
2022-11-22T07:50:34.051Z,13.52
2022-11-22T07:53:04.774Z,12.65
2022-11-22T07:55:35.568Z,14.95
2022-11-22T07:58:06.689Z,18.27
2022-11-22T08:00:37.181Z,18.40
2022-11-22T08:03:09.229Z,14.70
2022-11-22T08:05:40.112Z,12.98
2022-11-22T08:08:11.656Z,13.77
2022-11-22T08:10:42.589Z,17.90
2022-11-22T08:13:13.832Z,14.93
2022-11-22T08:15:44.749Z,13.63
2022-11-22T08:18:15.551Z,15.10
2022-11-22T08:20:46.203Z,15.05
2022-11-22T08:23:17.039Z,17.10
2022-11-22T08:25:48.641Z,14.77
2022-11-22T08:28:19.412Z,16.20
2022-11-22T08:30:50.308Z,19.25
2022-11-22T08:33:20.909Z,13.98
2022-11-22T08:35:52.752Z,16.38
2022-11-22T08:38:23.353Z,17.30
2022-11-22T08:40:54.603Z,15.07
2022-11-22T08:43:25.367Z,15.73
2022-11-22T08:46:00.564Z,18.33
2022-11-22T08:48:33.710Z,14.85
2022-11-22T08:51:08.452Z,15.43
2022-11-22T08:53:46.075Z,14.98
2022-11-22T08:56:18.634Z,15.80
2022-11-22T08:58:49.451Z,15.18
2022-11-22T09:01:22.813Z,15.25
2022-11-22T09:03:53.885Z,17.88
2022-11-22T09:09:36.356Z,16.08
2022-11-22T09:12:05.918Z,16.35
2022-11-22T09:14:36.540Z,51.72
2022-11-22T09:17:08.212Z,31.65
2022-11-22T09:19:40.548Z,16.52
2022-11-22T09:22:11.359Z,16.23
2022-11-22T09:24:41.461Z,14.88
2022-11-22T09:27:11.847Z,16.02
2022-11-22T09:29:42.537Z,18.05
2022-11-22T09:32:13.154Z,15.18
2022-11-22T09:34:44.276Z,15.15
2022-11-22T09:37:18.770Z,15.07
2022-11-22T09:39:49.304Z,25.75
2022-11-22T09:42:49.675Z,22.50
2022-11-22T09:45:44.540Z,19.50
2022-11-22T09:48:48.941Z,19.27
2022-11-22T09:51:27.511Z,16.50
2022-11-22T09:54:23.200Z,17.38
2022-11-22T09:56:58.350Z,17.17
2022-11-22T09:59:35.449Z,20.65
2022-11-22T10:02:27.271Z,19.65
2022-11-22T10:05:00.000Z,20.92
2022-11-22T10:07:39.459Z,19.95
2022-11-22T10:10:27.183Z,23.20
2022-11-22T10:13:15.795Z,24.20
2022-11-22T10:16:09.488Z,36.92
2022-11-22T10:18:50.832Z,23.80
2022-11-22T10:21:22.159Z,23.25
2022-11-22T10:23:53.684Z,19.40
2022-11-22T10:26:30.839Z,21.80
2022-11-22T10:29:32.503Z,22.65
2022-11-22T10:32:30.938Z,21.38
2022-11-22T10:35:40.641Z,22.55
2022-11-22T10:38:49.206Z,32.03
2022-11-22T10:41:58.519Z,92.10
2022-11-22T10:44:56.537Z,35.25
2022-11-22T10:48:02.765Z,21.70
2022-11-22T10:51:09.352Z,19.48
2022-11-22T10:54:19.616Z,24.50
2022-11-22T10:57:28.853Z,23.38
2022-11-22T11:00:23.161Z,21.85
2022-11-22T11:03:19.055Z,21.90
2022-11-22T11:13:01.490Z,28.10
2022-11-22T11:15:55.981Z,29.00
2022-11-22T11:18:47.928Z,25.40
2022-11-22T11:21:18.558Z,27.85
2022-11-22T11:23:49.935Z,26.20
2022-11-22T11:26:39.448Z,30.38
2022-11-22T11:29:49.081Z,34.97
2022-11-22T11:32:23.629Z,165.57
2022-11-22T11:35:09.628Z,200.75
2022-11-22T11:37:43.131Z,42.03
2022-11-22T11:40:34.678Z,41.00
2022-11-22T11:43:25.418Z,34.50
2022-11-22T11:45:56.255Z,34.47
2022-11-22T11:48:39.893Z,34.45
2022-11-22T11:51:50.078Z,38.55
2022-11-22T11:54:23.667Z,43.33
2022-11-22T11:57:16.026Z,38.50
2022-11-22T11:59:49.536Z,39.92
2022-11-22T12:02:43.016Z,46.35
2022-11-22T12:05:34.094Z,45.92
2022-11-22T12:08:05.115Z,45.88
2022-11-22T12:10:51.549Z,54.05
2022-11-22T12:14:18.348Z,59.80
2022-11-22T12:16:49.407Z,59.03
2022-11-22T12:20:00.551Z,52.50
2022-11-22T12:23:09.810Z,51.15
2022-11-22T12:25:42.339Z,62.53
2022-11-22T12:28:35.027Z,59.60
2022-11-22T12:31:20.624Z,49.33
2022-11-22T12:33:59.190Z,50.58
2022-11-22T12:37:02.910Z,39.42
2022-11-22T12:39:37.271Z,37.22
2022-11-22T12:42:26.708Z,39.17
2022-11-22T12:45:07.277Z,47.95
2022-11-22T12:47:45.882Z,41.72
2022-11-22T12:50:41.172Z,39.53
2022-11-22T12:53:40.952Z,40.80
2022-11-22T12:56:29.825Z,37.60
2022-11-22T12:59:34.637Z,41.67
2022-11-22T13:02:44.421Z,36.95
2022-11-22T13:05:38.338Z,34.63
2022-11-22T13:08:40.741Z,37.55
2022-11-22T13:11:21.128Z,28.52
2022-11-22T13:13:56.824Z,31.60
2022-11-22T13:16:27.128Z,32.72
2022-11-22T13:19:09.758Z,32.92
2022-11-22T13:22:15.280Z,33.00
2022-11-22T13:25:25.242Z,33.55
2022-11-22T13:28:00.487Z,40.38
2022-11-22T13:30:32.667Z,50.40
2022-11-22T13:33:03.568Z,95.30
2022-11-22T13:35:41.018Z,256.70
2022-11-22T13:38:19.925Z,398.05
2022-11-22T13:40:52.799Z,73.65
2022-11-22T13:43:50.133Z,65.10
2022-11-22T13:47:00.106Z,63.83
2022-11-22T13:49:51.402Z,53.13
2022-11-22T13:52:56.803Z,57.05
2022-11-22T13:55:41.781Z,49.80
2022-11-22T13:58:53.399Z,55.20
2022-11-22T14:02:00.230Z,46.22
2022-11-22T14:04:39.830Z,39.30
2022-11-22T14:07:44.490Z,41.33
2022-11-22T14:10:54.690Z,36.60
2022-11-22T14:13:57.792Z,39.33
2022-11-22T14:16:53.999Z,35.55
2022-11-22T14:19:50.275Z,44.25
2022-11-22T14:22:46.932Z,50.35
2022-11-22T14:25:56.145Z,68.68
2022-11-22T14:29:02.237Z,72.28
2022-11-22T14:31:35.336Z,72.70
2022-11-22T14:34:29.909Z,76.80
2022-11-22T14:37:39.392Z,75.18
2022-11-22T14:40:28.774Z,50.83
2022-11-22T14:43:20.105Z,45.70
2022-11-22T14:46:03.575Z,50.55
2022-11-22T14:48:39.245Z,44.40
2022-11-22T14:51:16.967Z,40.00
2022-11-22T14:54:04.980Z,39.92
2022-11-22T14:56:37.790Z,42.92
2022-11-22T14:59:47.744Z,37.80
2022-11-22T15:02:57.075Z,32.25
2022-11-22T15:09:13.689Z,32.30
2022-11-22T15:09:46.860Z,29.80
2022-11-22T15:12:55.613Z,33.20
2022-11-22T15:57:54.094Z,28.58
2022-11-22T16:00:30.662Z,24.83
2022-11-22T16:03:04.454Z,33.45
2022-11-22T16:06:06.430Z,26.52
2022-11-22T16:08:32.378Z,31.20
2022-11-22T16:11:03.313Z,28.55
2022-11-22T16:13:38.400Z,27.35
2022-11-22T16:16:35.232Z,33.80
2022-11-22T16:19:26.471Z,28.45
2022-11-22T16:22:04.612Z,28.50
2022-11-22T16:24:35.261Z,33.97
2022-11-22T16:27:16.736Z,27.27
2022-11-22T16:29:53.910Z,29.23
2022-11-22T16:32:24.387Z,26.67
2022-11-22T16:35:08.363Z,27.67
2022-11-22T16:37:48.243Z,27.33
2022-11-22T16:40:18.907Z,28.30
2022-11-22T16:42:49.720Z,30.80
2022-11-22T16:45:24.500Z,26.70
2022-11-22T16:48:16.562Z,24.73
2022-11-22T16:50:50.018Z,29.73
2022-11-22T16:53:20.365Z,33.28
2022-11-22T16:55:51.748Z,27.05
2022-11-22T16:58:25.015Z,30.13
2022-11-22T17:00:58.287Z,28.30
2022-11-22T17:03:35.170Z,26.90
2022-11-22T17:06:05.741Z,34.33
2022-11-22T17:08:36.049Z,40.33
2022-11-22T17:11:06.392Z,46.70
2022-11-22T17:13:36.513Z,36.72
2022-11-22T17:16:07.093Z,42.85
2022-11-22T17:18:37.127Z,33.20
2022-11-22T17:21:30.321Z,36.63
2022-11-22T17:24:07.160Z,28.85
2022-11-22T17:26:38.141Z,36.63
2022-11-22T17:29:11.161Z,29.17
2022-11-22T17:31:53.266Z,29.75
2022-11-22T17:34:23.649Z,24.42
2022-11-22T17:36:54.502Z,28.77
2022-11-22T17:39:24.994Z,28.92
2022-11-22T17:41:55.564Z,31.60
2022-11-22T17:44:27.269Z,37.85
2022-11-22T17:46:57.761Z,35.75
2022-11-22T17:49:28.128Z,72.53
2022-11-22T17:51:58.265Z,38.40
2022-11-22T17:54:28.845Z,29.88
2022-11-22T17:56:59.269Z,27.08
2022-11-22T17:59:30.894Z,24.05
2022-11-22T18:02:01.641Z,25.77
2022-11-22T18:04:32.345Z,23.83
2022-11-22T18:07:03.117Z,24.92
2022-11-22T18:09:36.075Z,26.35
2022-11-22T18:12:06.724Z,27.73
2022-11-22T18:14:37.295Z,20.23
2022-11-22T18:17:08.220Z,27.63
2022-11-22T18:19:38.707Z,29.30
2022-11-22T18:22:09.153Z,28.90
2022-11-22T18:24:39.586Z,27.50
2022-11-22T18:27:10.110Z,24.27
2022-11-22T18:29:43.202Z,29.48
2022-11-22T18:32:13.982Z,32.03
2022-11-22T18:34:45.947Z,27.15
2022-11-22T18:37:16.780Z,24.20
2022-11-22T18:39:47.257Z,26.95
2022-11-22T18:42:18.716Z,28.38
2022-11-22T18:44:48.847Z,30.05
2022-11-22T18:47:19.336Z,28.77
2022-11-22T18:49:50.584Z,26.17
2022-11-22T18:52:21.309Z,32.35
2022-11-22T18:54:53.150Z,28.15
2022-11-22T18:57:23.601Z,27.80
2022-11-22T18:59:54.514Z,27.15
2022-11-22T19:02:28.910Z,25.60
2022-11-22T19:04:59.437Z,30.92
2022-11-22T19:07:30.546Z,30.08
2022-11-22T19:10:01.318Z,31.75
2022-11-22T19:12:31.863Z,28.23
2022-11-22T19:15:02.694Z,28.73
2022-11-22T19:17:33.210Z,31.30
2022-11-22T19:20:03.603Z,33.53
2022-11-22T19:22:34.353Z,29.25
2022-11-22T19:25:04.901Z,31.67
2022-11-22T19:27:35.013Z,26.15
2022-11-22T19:30:05.806Z,31.83
2022-11-22T19:32:37.179Z,29.50
2022-11-22T19:35:07.692Z,30.08
2022-11-22T19:37:38.513Z,29.45
2022-11-22T19:40:09.694Z,27.00
2022-11-22T19:42:41.489Z,31.35
2022-11-22T19:45:12.165Z,29.55
2022-11-22T19:47:42.722Z,27.20
2022-11-22T19:50:12.819Z,29.60
2022-11-22T19:52:42.849Z,28.00
2022-11-22T19:55:15.727Z,29.00
2022-11-22T19:57:45.767Z,25.10
2022-11-22T20:00:16.574Z,28.33
2022-11-22T20:02:46.929Z,24.42
2022-11-22T20:05:17.479Z,23.05
2022-11-22T20:07:47.920Z,27.58
2022-11-22T20:10:18.075Z,25.33
2022-11-22T20:12:48.814Z,26.40
2022-11-22T20:15:20.236Z,25.95
2022-11-22T20:17:50.588Z,22.30
2022-11-22T20:20:20.749Z,27.02
2022-11-22T20:22:50.774Z,25.35
2022-11-22T20:25:20.986Z,24.80
2022-11-22T20:27:51.544Z,23.30
2022-11-22T20:30:22.101Z,24.30
2022-11-22T20:32:53.767Z,24.67
2022-11-22T20:35:24.207Z,29.88
2022-11-22T20:37:54.867Z,29.30
2022-11-22T20:40:25.470Z,29.35
2022-11-22T20:42:55.337Z,27.42
2022-11-22T20:45:25.699Z,29.30
2022-11-22T20:47:56.444Z,25.15
2022-11-22T20:50:26.885Z,24.65
2022-11-22T20:52:57.969Z,28.15
2022-11-22T20:55:28.902Z,23.35
2022-11-22T20:57:59.654Z,22.88
2022-11-22T21:00:31.056Z,23.27
2022-11-22T21:03:01.477Z,23.85
2022-11-22T21:05:32.297Z,25.98
2022-11-22T21:08:05.225Z,22.13
2022-11-22T21:10:36.434Z,24.15
2022-11-22T21:13:06.981Z,25.42
2022-11-22T21:15:37.429Z,21.58
2022-11-22T21:21:05.312Z,22.67
2022-11-22T21:23:36.612Z,22.80
2022-11-22T21:26:08.654Z,25.65
2022-11-22T21:28:41.256Z,24.23
2022-11-22T21:31:11.461Z,19.63
2022-11-22T21:33:42.179Z,21.00
2022-11-22T21:36:13.557Z,25.42
2022-11-22T21:38:44.569Z,27.52
2022-11-22T21:44:08.625Z,23.90
2022-11-22T21:46:39.501Z,20.88
2022-11-22T21:49:09.976Z,25.15
2022-11-22T21:51:40.053Z,23.33
2022-11-22T21:54:10.995Z,25.30
2022-11-22T21:56:41.380Z,26.08
2022-11-22T21:59:13.504Z,22.88
2022-11-22T22:01:43.946Z,25.58
2022-11-22T22:04:14.248Z,23.80
2022-11-22T22:06:46.257Z,20.75
2022-11-22T22:09:17.290Z,21.77
2022-11-22T22:11:49.516Z,24.05
2022-11-22T22:14:19.912Z,24.63
2022-11-22T22:16:50.316Z,23.30
2022-11-22T22:19:20.839Z,23.77
2022-11-22T22:21:51.221Z,22.20
2022-11-22T22:24:22.040Z,21.60
2022-11-22T22:26:52.591Z,27.58
2022-11-22T22:29:23.714Z,22.25
2022-11-22T22:31:54.180Z,25.05
2022-11-22T22:34:24.655Z,25.77
2022-11-22T22:36:54.772Z,27.45
2022-11-22T22:39:24.610Z,25.35
2022-11-22T22:41:54.694Z,25.30
2022-11-22T22:44:24.702Z,29.20
2022-11-22T22:46:54.505Z,26.98
2022-11-22T22:49:24.547Z,26.27
2022-11-22T22:51:56.584Z,22.88
2022-11-22T22:54:27.254Z,28.52
2022-11-22T22:56:58.050Z,23.63
2022-11-22T22:59:29.371Z,23.52
2022-11-22T23:02:00.136Z,31.33
2022-11-22T23:04:30.586Z,22.95
2022-11-22T23:07:01.309Z,26.40
2022-11-22T23:09:31.676Z,29.85
2022-11-22T23:12:21.443Z,26.38
2022-11-22T23:14:51.520Z,25.52
2022-11-22T23:17:21.913Z,26.35
2022-11-22T23:19:52.385Z,30.08
2022-11-22T23:22:25.898Z,47.28
2022-11-22T23:24:56.606Z,38.88
2022-11-22T23:27:26.984Z,34.70
2022-11-22T23:29:57.129Z,35.65
2022-11-22T23:32:27.727Z,28.75
2022-11-22T23:34:58.201Z,26.38
2022-11-22T23:37:28.337Z,35.28
2022-11-22T23:39:58.379Z,37.55
2022-11-22T23:42:28.576Z,27.42
2022-11-22T23:44:59.224Z,24.67
2022-11-22T23:47:31.011Z,22.40
2022-11-22T23:50:01.235Z,24.88
2022-11-22T23:52:31.908Z,23.95
2022-11-22T23:55:02.828Z,25.27
2022-11-22T23:57:33.611Z,24.23
